createdAt,value
2023-05-08T00:02:57.824Z,20.70
2023-05-08T00:11:03.306Z,20.00
2023-05-08T00:19:11.647Z,19.90
2023-05-08T00:27:17.301Z,19.80
2023-05-08T00:35:25.620Z,19.90
2023-05-08T00:43:31.168Z,19.80
2023-05-08T00:51:40.013Z,20.00
2023-05-08T00:59:47.396Z,20.00
2023-05-08T01:07:55.591Z,20.10
2023-05-08T01:16:10.094Z,19.90
2023-05-08T01:24:52.087Z,20.00
2023-05-08T01:33:05.724Z,20.00
2023-05-08T01:41:15.068Z,19.60
2023-05-08T01:49:28.542Z,19.70
2023-05-08T01:57:37.716Z,19.70
2023-05-08T02:05:47.136Z,19.70
2023-05-08T02:13:54.483Z,19.50
2023-05-08T02:22:03.838Z,19.30
2023-05-08T02:30:11.567Z,19.60
2023-05-08T02:38:23.659Z,19.50
2023-05-08T02:46:39.127Z,19.30
2023-05-08T02:54:56.493Z,19.70
2023-05-08T03:03:11.132Z,19.80
2023-05-08T03:11:24.663Z,19.90
2023-05-08T03:19:30.992Z,20.00
2023-05-08T03:27:39.805Z,19.70
2023-05-08T03:35:46.574Z,19.70
2023-05-08T03:43:56.441Z,19.90
2023-05-08T03:52:03.152Z,19.90
2023-05-08T04:00:17.583Z,20.00
2023-05-08T04:08:31.364Z,20.10
2023-05-08T04:16:48.465Z,20.40
2023-05-08T04:24:55.513Z,20.60
2023-05-08T04:33:06.836Z,20.50
2023-05-08T04:41:13.239Z,20.40
2023-05-08T04:49:21.706Z,20.50
2023-05-08T04:57:27.160Z,20.60
2023-05-08T05:05:36.443Z,20.60
2023-05-08T05:13:44.346Z,20.60
2023-05-08T05:21:52.800Z,20.50
2023-05-08T05:29:58.391Z,20.50
2023-05-08T05:38:07.674Z,20.40
2023-05-08T05:46:13.667Z,20.30
2023-05-08T05:54:22.452Z,20.40
2023-05-08T06:02:28.672Z,20.40
2023-05-08T06:10:36.829Z,20.30
2023-05-08T06:18:42.273Z,20.30
2023-05-08T06:26:51.129Z,20.50
2023-05-08T06:34:56.836Z,20.70
2023-05-08T06:43:04.825Z,20.90
2023-05-08T06:51:10.307Z,20.70
2023-05-08T06:59:18.310Z,20.70
2023-05-08T07:07:23.763Z,20.60
2023-05-08T07:15:34.159Z,20.60
2023-05-08T07:23:39.909Z,20.80
2023-05-08T07:31:48.906Z,21.00
2023-05-08T07:39:54.284Z,21.40
2023-05-08T07:48:02.671Z,21.60
2023-05-08T07:56:09.183Z,22.20
2023-05-08T08:04:17.353Z,22.50
2023-05-08T08:12:24.056Z,22.10
2023-05-08T08:20:32.124Z,22.00
2023-05-08T08:28:37.429Z,21.90
2023-05-08T08:36:45.525Z,22.40
2023-05-08T08:44:51.511Z,22.90
2023-05-08T08:53:06.196Z,23.60
2023-05-08T09:01:18.147Z,24.40
2023-05-08T09:09:26.661Z,24.50
2023-05-08T09:17:32.172Z,24.60
2023-05-08T09:25:51.376Z,25.10
2023-05-08T09:33:56.929Z,24.90
2023-05-08T09:42:06.625Z,24.40
2023-05-08T09:50:14.208Z,23.40
2023-05-08T09:58:23.526Z,23.40
2023-05-08T10:06:29.062Z,24.60
2023-05-08T10:14:37.138Z,25.20
2023-05-08T10:22:46.720Z,25.00
2023-05-08T10:30:58.769Z,24.70
2023-05-08T10:39:04.386Z,25.40
2023-05-08T10:47:20.049Z,26.40
2023-05-08T10:55:31.443Z,27.10
2023-05-08T11:03:44.652Z,26.90
2023-05-08T11:12:08.142Z,28.40
2023-05-08T11:20:19.101Z,28.00
2023-05-08T11:28:24.507Z,29.60
2023-05-08T11:36:32.415Z,39.30
2023-05-08T11:44:38.719Z,46.00
2023-05-08T11:52:46.659Z,49.90
2023-05-08T12:00:52.683Z,47.20
2023-05-08T12:09:01.484Z,38.60
2023-05-08T12:17:06.990Z,36.60
2023-05-08T12:25:15.509Z,33.20
2023-05-08T12:33:23.188Z,28.90
2023-05-08T12:41:31.330Z,26.30
2023-05-08T12:49:36.828Z,22.80
2023-05-08T12:57:44.793Z,21.00
2023-05-08T13:05:50.238Z,20.30
2023-05-08T13:13:58.222Z,20.60
2023-05-08T13:22:03.829Z,20.50
2023-05-08T13:30:13.256Z,20.80
2023-05-08T13:38:18.779Z,19.90
2023-05-08T13:46:27.303Z,19.40
2023-05-08T13:54:33.111Z,19.50
2023-05-08T14:02:41.480Z,19.70
2023-05-08T14:10:46.939Z,19.50
2023-05-08T14:18:55.002Z,18.50
2023-05-08T14:27:00.703Z,18.00
2023-05-08T14:35:10.477Z,18.70
2023-05-08T14:43:15.871Z,18.80
2023-05-08T14:51:23.872Z,17.90
2023-05-08T14:59:29.277Z,18.20
2023-05-08T15:07:40.694Z,18.00
2023-05-08T15:15:47.540Z,18.20
2023-05-08T15:23:55.909Z,18.10
2023-05-08T15:32:01.376Z,18.10
2023-05-08T15:40:10.718Z,17.60
2023-05-08T15:48:21.490Z,17.50
2023-05-08T15:56:29.824Z,17.40
2023-05-08T16:04:35.296Z,16.70
2023-05-08T16:12:43.272Z,16.90
2023-05-08T16:20:48.802Z,16.10
2023-05-08T16:28:56.796Z,15.60
2023-05-08T16:37:02.308Z,15.10
2023-05-08T16:45:11.793Z,14.80
2023-05-08T16:53:17.273Z,15.40
2023-05-08T17:01:25.367Z,14.70
2023-05-08T17:09:30.890Z,15.00
2023-05-08T17:17:38.889Z,15.00
2023-05-08T17:25:44.422Z,15.00
2023-05-08T17:33:52.397Z,15.30
2023-05-08T17:41:57.824Z,15.30
2023-05-08T17:50:06.691Z,15.70
2023-05-08T17:58:12.202Z,15.80
2023-05-08T18:06:21.575Z,15.10
2023-05-08T18:14:27.001Z,15.30
2023-05-08T18:22:35.052Z,15.50
2023-05-08T18:30:40.452Z,15.20
2023-05-08T18:38:48.527Z,14.90
2023-05-08T18:46:54.000Z,14.60
2023-05-08T18:55:02.039Z,14.90
2023-05-08T19:03:07.708Z,15.00
2023-05-08T19:11:16.044Z,15.10
2023-05-08T19:19:21.540Z,15.20
2023-05-08T19:27:29.508Z,15.50
2023-05-08T19:35:35.052Z,15.70
2023-05-08T19:43:43.049Z,15.60
2023-05-08T19:51:48.815Z,15.70
2023-05-08T19:59:56.974Z,16.00
2023-05-08T20:08:02.317Z,15.20
2023-05-08T20:16:16.305Z,15.30
2023-05-08T20:24:21.836Z,15.00
2023-05-08T20:32:29.976Z,15.30
2023-05-08T20:40:35.546Z,15.10
2023-05-08T20:48:43.668Z,15.30
2023-05-08T20:56:49.115Z,15.40
2023-05-08T21:04:57.292Z,14.80
2023-05-08T21:13:02.840Z,14.30
2023-05-08T21:21:18.996Z,14.50
2023-05-08T21:29:24.554Z,14.60
2023-05-08T21:37:33.198Z,14.30
2023-05-08T21:45:38.814Z,14.10
2023-05-08T21:53:46.796Z,14.20
2023-05-08T22:01:52.321Z,14.20
2023-05-08T22:10:00.473Z,14.30
2023-05-08T22:18:05.913Z,14.00
2023-05-08T22:26:14.198Z,14.20
2023-05-08T22:34:19.683Z,14.20
2023-05-08T22:42:28.220Z,13.90
2023-05-08T22:50:33.713Z,13.70
2023-05-08T22:58:41.849Z,13.40
2023-05-08T23:06:47.260Z,12.80
2023-05-08T23:14:55.358Z,13.00
2023-05-08T23:23:00.878Z,13.00
2023-05-08T23:31:08.936Z,12.80
2023-05-08T23:39:14.340Z,12.70
2023-05-08T23:47:22.883Z,12.90
2023-05-08T23:55:28.610Z,13.60
